sensor_id;sensor_type;location;lat;lon;timestamp;P1;durP1;ratioP1;P2;durP2;ratioP2
78372;SDS011;67656;52.074;4.758;2023-06-26T00:01:52;6.35;;;3.80;;
78372;SDS011;67656;52.074;4.758;2023-06-26T00:06:52;5.90;;;3.80;;
78372;SDS011;67656;52.074;4.758;2023-06-26T00:11:52;6.15;;;3.95;;
78372;SDS011;67656;52.074;4.758;2023-06-26T00:16:53;6.75;;;4.22;;
78372;SDS011;67656;52.074;4.758;2023-06-26T00:21:53;9.23;;;4.10;;
78372;SDS011;67656;52.074;4.758;2023-06-26T00:26:54;8.18;;;4.30;;
78372;SDS011;67656;52.074;4.758;2023-06-26T00:31:54;6.45;;;3.90;;
78372;SDS011;67656;52.074;4.758;2023-06-26T00:36:54;7.38;;;3.90;;
78372;SDS011;67656;52.074;4.758;2023-06-26T00:41:55;6.60;;;4.03;;
78372;SDS011;67656;52.074;4.758;2023-06-26T00:46:55;6.80;;;3.60;;
78372;SDS011;67656;52.074;4.758;2023-06-26T00:51:56;8.20;;;3.95;;
78372;SDS011;67656;52.074;4.758;2023-06-26T00:56:56;8.95;;;3.50;;
78372;SDS011;67656;52.074;4.758;2023-06-26T01:01:56;7.80;;;3.47;;
78372;SDS011;67656;52.074;4.758;2023-06-26T01:06:57;8.32;;;3.33;;
78372;SDS011;67656;52.074;4.758;2023-06-26T01:11:58;7.05;;;3.35;;
78372;SDS011;67656;52.074;4.758;2023-06-26T01:17:00;7.05;;;3.33;;
78372;SDS011;67656;52.074;4.758;2023-06-26T01:22:17;10.15;;;3.40;;
78372;SDS011;67656;52.074;4.758;2023-06-26T01:27:23;11.60;;;3.40;;
78372;SDS011;67656;52.074;4.758;2023-06-26T01:32:25;5.90;;;3.17;;
78372;SDS011;67656;52.074;4.758;2023-06-26T01:37:27;9.32;;;3.67;;
78372;SDS011;67656;52.074;4.758;2023-06-26T01:42:28;9.57;;;3.30;;
78372;SDS011;67656;52.074;4.758;2023-06-26T01:47:29;8.52;;;3.20;;
78372;SDS011;67656;52.074;4.758;2023-06-26T01:52:37;10.50;;;3.58;;
78372;SDS011;67656;52.074;4.758;2023-06-26T01:57:43;9.15;;;3.47;;
78372;SDS011;67656;52.074;4.758;2023-06-26T02:02:47;9.07;;;3.42;;
78372;SDS011;67656;52.074;4.758;2023-06-26T02:07:48;9.93;;;3.50;;
78372;SDS011;67656;52.074;4.758;2023-06-26T02:12:48;10.95;;;3.35;;
78372;SDS011;67656;52.074;4.758;2023-06-26T02:17:49;8.88;;;3.20;;
78372;SDS011;67656;52.074;4.758;2023-06-26T02:22:49;11.68;;;3.42;;
78372;SDS011;67656;52.074;4.758;2023-06-26T02:27:49;8.50;;;3.53;;
78372;SDS011;67656;52.074;4.758;2023-06-26T02:32:50;10.38;;;3.22;;
78372;SDS011;67656;52.074;4.758;2023-06-26T02:37:52;7.70;;;3.80;;
78372;SDS011;67656;52.074;4.758;2023-06-26T02:42:52;7.97;;;3.13;;
78372;SDS011;67656;52.074;4.758;2023-06-26T02:47:54;12.93;;;3.63;;
78372;SDS011;67656;52.074;4.758;2023-06-26T02:52:54;16.08;;;3.65;;
78372;SDS011;67656;52.074;4.758;2023-06-26T02:57:56;10.30;;;3.47;;
78372;SDS011;67656;52.074;4.758;2023-06-26T03:02:57;11.68;;;3.50;;
78372;SDS011;67656;52.074;4.758;2023-06-26T03:07:57;9.65;;;3.10;;
78372;SDS011;67656;52.074;4.758;2023-06-26T03:12:58;11.68;;;3.55;;
78372;SDS011;67656;52.074;4.758;2023-06-26T03:17:58;9.95;;;3.25;;
78372;SDS011;67656;52.074;4.758;2023-06-26T03:23:01;9.60;;;3.22;;
78372;SDS011;67656;52.074;4.758;2023-06-26T03:28:02;13.50;;;4.05;;
78372;SDS011;67656;52.074;4.758;2023-06-26T03:33:03;14.07;;;3.70;;
78372;SDS011;67656;52.074;4.758;2023-06-26T03:38:04;11.13;;;3.22;;
78372;SDS011;67656;52.074;4.758;2023-06-26T03:43:06;9.65;;;3.00;;
78372;SDS011;67656;52.074;4.758;2023-06-26T03:48:17;14.48;;;3.85;;
78372;SDS011;67656;52.074;4.758;2023-06-26T03:53:18;12.68;;;3.20;;
78372;SDS011;67656;52.074;4.758;2023-06-26T03:58:18;12.77;;;3.50;;
78372;SDS011;67656;52.074;4.758;2023-06-26T04:03:18;10.45;;;3.42;;
78372;SDS011;67656;52.074;4.758;2023-06-26T04:08:20;9.18;;;3.30;;
78372;SDS011;67656;52.074;4.758;2023-06-26T04:13:21;10.00;;;3.20;;
78372;SDS011;67656;52.074;4.758;2023-06-26T04:18:21;13.10;;;3.90;;
78372;SDS011;67656;52.074;4.758;2023-06-26T04:23:21;9.98;;;3.65;;
78372;SDS011;67656;52.074;4.758;2023-06-26T04:28:22;13.73;;;3.88;;
78372;SDS011;67656;52.074;4.758;2023-06-26T04:33:22;11.40;;;3.33;;
78372;SDS011;67656;52.074;4.758;2023-06-26T04:38:23;13.95;;;3.80;;
78372;SDS011;67656;52.074;4.758;2023-06-26T04:43:23;9.35;;;3.35;;
78372;SDS011;67656;52.074;4.758;2023-06-26T04:48:23;14.02;;;3.10;;
78372;SDS011;67656;52.074;4.758;2023-06-26T04:53:24;8.30;;;3.08;;
78372;SDS011;67656;52.074;4.758;2023-06-26T04:58:25;9.43;;;3.10;;
78372;SDS011;67656;52.074;4.758;2023-06-26T05:03:25;7.88;;;3.13;;
78372;SDS011;67656;52.074;4.758;2023-06-26T05:08:25;9.80;;;2.95;;
78372;SDS011;67656;52.074;4.758;2023-06-26T05:13:26;8.07;;;2.90;;
78372;SDS011;67656;52.074;4.758;2023-06-26T05:18:26;5.45;;;2.40;;
78372;SDS011;67656;52.074;4.758;2023-06-26T05:23:27;6.03;;;2.40;;
78372;SDS011;67656;52.074;4.758;2023-06-26T05:28:31;6.95;;;2.40;;
78372;SDS011;67656;52.074;4.758;2023-06-26T05:33:32;4.30;;;2.05;;
78372;SDS011;67656;52.074;4.758;2023-06-26T05:43:35;5.10;;;2.20;;
78372;SDS011;67656;52.074;4.758;2023-06-26T05:48:36;4.28;;;2.20;;
78372;SDS011;67656;52.074;4.758;2023-06-26T05:53:36;5.55;;;2.45;;
78372;SDS011;67656;52.074;4.758;2023-06-26T05:58:37;4.38;;;2.00;;
78372;SDS011;67656;52.074;4.758;2023-06-26T06:03:38;4.13;;;1.70;;
78372;SDS011;67656;52.074;4.758;2023-06-26T06:08:39;4.38;;;1.77;;
78372;SDS011;67656;52.074;4.758;2023-06-26T06:13:39;5.85;;;1.67;;
78372;SDS011;67656;52.074;4.758;2023-06-26T06:18:40;3.63;;;1.60;;
78372;SDS011;67656;52.074;4.758;2023-06-26T06:23:40;6.22;;;1.63;;
78372;SDS011;67656;52.074;4.758;2023-06-26T06:28:40;3.90;;;1.40;;
78372;SDS011;67656;52.074;4.758;2023-06-26T06:33:41;5.88;;;1.52;;
78372;SDS011;67656;52.074;4.758;2023-06-26T06:38:44;6.03;;;1.30;;
78372;SDS011;67656;52.074;4.758;2023-06-26T06:43:45;3.67;;;1.08;;
78372;SDS011;67656;52.074;4.758;2023-06-26T06:48:45;4.68;;;1.30;;
78372;SDS011;67656;52.074;4.758;2023-06-26T06:53:45;5.32;;;1.20;;
78372;SDS011;67656;52.074;4.758;2023-06-26T06:58:46;3.92;;;1.08;;
78372;SDS011;67656;52.074;4.758;2023-06-26T07:03:46;4.88;;;1.00;;
78372;SDS011;67656;52.074;4.758;2023-06-26T07:08:46;3.90;;;0.85;;
78372;SDS011;67656;52.074;4.758;2023-06-26T07:13:47;4.60;;;1.20;;
78372;SDS011;67656;52.074;4.758;2023-06-26T07:18:47;2.88;;;0.95;;
78372;SDS011;67656;52.074;4.758;2023-06-26T07:23:48;3.30;;;1.00;;
78372;SDS011;67656;52.074;4.758;2023-06-26T07:28:48;3.13;;;1.27;;
78372;SDS011;67656;52.074;4.758;2023-06-26T07:33:48;4.07;;;0.93;;
78372;SDS011;67656;52.074;4.758;2023-06-26T07:38:49;4.82;;;1.08;;
78372;SDS011;67656;52.074;4.758;2023-06-26T07:43:49;5.40;;;1.58;;
78372;SDS011;67656;52.074;4.758;2023-06-26T07:48:49;4.45;;;1.25;;
78372;SDS011;67656;52.074;4.758;2023-06-26T07:53:50;4.87;;;1.23;;
78372;SDS011;67656;52.074;4.758;2023-06-26T07:58:50;6.45;;;1.35;;
78372;SDS011;67656;52.074;4.758;2023-06-26T08:03:51;3.17;;;1.15;;
78372;SDS011;67656;52.074;4.758;2023-06-26T08:08:51;4.03;;;1.15;;
78372;SDS011;67656;52.074;4.758;2023-06-26T08:13:51;5.03;;;1.08;;
78372;SDS011;67656;52.074;4.758;2023-06-26T08:18:52;3.03;;;1.10;;
78372;SDS011;67656;52.074;4.758;2023-06-26T08:23:52;8.20;;;1.33;;
78372;SDS011;67656;52.074;4.758;2023-06-26T08:28:53;4.65;;;1.35;;
78372;SDS011;67656;52.074;4.758;2023-06-26T08:33:53;3.45;;;1.30;;
78372;SDS011;67656;52.074;4.758;2023-06-26T08:38:53;3.75;;;1.27;;
78372;SDS011;67656;52.074;4.758;2023-06-26T08:43:54;3.50;;;1.20;;
78372;SDS011;67656;52.074;4.758;2023-06-26T08:48:55;8.10;;;1.30;;
78372;SDS011;67656;52.074;4.758;2023-06-26T08:53:57;2.83;;;1.30;;
78372;SDS011;67656;52.074;4.758;2023-06-26T08:58:58;3.40;;;1.02;;
78372;SDS011;67656;52.074;4.758;2023-06-26T09:03:59;3.63;;;1.30;;
78372;SDS011;67656;52.074;4.758;2023-06-26T09:08:59;3.58;;;1.10;;
78372;SDS011;67656;52.074;4.758;2023-06-26T09:14:00;2.85;;;1.10;;
78372;SDS011;67656;52.074;4.758;2023-06-26T09:19:01;4.00;;;1.10;;
78372;SDS011;67656;52.074;4.758;2023-06-26T09:24:01;2.10;;;0.82;;
78372;SDS011;67656;52.074;4.758;2023-06-26T09:29:02;4.13;;;1.00;;
78372;SDS011;67656;52.074;4.758;2023-06-26T09:34:03;2.33;;;1.03;;
78372;SDS011;67656;52.074;4.758;2023-06-26T09:39:03;4.00;;;1.00;;
78372;SDS011;67656;52.074;4.758;2023-06-26T09:44:05;4.68;;;1.20;;
78372;SDS011;67656;52.074;4.758;2023-06-26T09:49:07;5.82;;;1.40;;
78372;SDS011;67656;52.074;4.758;2023-06-26T09:54:09;3.88;;;1.35;;
78372;SDS011;67656;52.074;4.758;2023-06-26T09:59:09;4.32;;;1.20;;
78372;SDS011;67656;52.074;4.758;2023-06-26T10:04:10;3.53;;;1.30;;
78372;SDS011;67656;52.074;4.758;2023-06-26T10:09:10;4.20;;;1.20;;
78372;SDS011;67656;52.074;4.758;2023-06-26T10:14:12;5.90;;;1.10;;
78372;SDS011;67656;52.074;4.758;2023-06-26T10:19:15;3.10;;;1.00;;
78372;SDS011;67656;52.074;4.758;2023-06-26T10:24:18;5.75;;;1.25;;
78372;SDS011;67656;52.074;4.758;2023-06-26T10:34:22;4.65;;;1.00;;
78372;SDS011;67656;52.074;4.758;2023-06-26T10:39:23;2.70;;;1.00;;
78372;SDS011;67656;52.074;4.758;2023-06-26T10:44:23;8.23;;;1.42;;
78372;SDS011;67656;52.074;4.758;2023-06-26T10:49:30;19.42;;;2.00;;
78372;SDS011;67656;52.074;4.758;2023-06-26T10:54:33;3.53;;;0.98;;
78372;SDS011;67656;52.074;4.758;2023-06-26T10:59:38;3.28;;;0.80;;
78372;SDS011;67656;52.074;4.758;2023-06-26T11:04:46;5.72;;;0.80;;
78372;SDS011;67656;52.074;4.758;2023-06-26T11:10:08;2.65;;;0.85;;
78372;SDS011;67656;52.074;4.758;2023-06-26T11:15:13;4.05;;;0.80;;
78372;SDS011;67656;52.074;4.758;2023-06-26T11:20:15;2.03;;;0.85;;
78372;SDS011;67656;52.074;4.758;2023-06-26T11:25:15;3.35;;;0.90;;
78372;SDS011;67656;52.074;4.758;2023-06-26T11:30:23;1.75;;;0.82;;
78372;SDS011;67656;52.074;4.758;2023-06-26T11:35:25;3.08;;;0.80;;
78372;SDS011;67656;52.074;4.758;2023-06-26T11:40:26;3.58;;;0.80;;
78372;SDS011;67656;52.074;4.758;2023-06-26T11:45:33;1.50;;;0.70;;
78372;SDS011;67656;52.074;4.758;2023-06-26T11:50:33;3.90;;;1.05;;
78372;SDS011;67656;52.074;4.758;2023-06-26T11:55:40;3.03;;;0.88;;
78372;SDS011;67656;52.074;4.758;2023-06-26T12:00:42;3.80;;;0.98;;
78372;SDS011;67656;52.074;4.758;2023-06-26T12:05:42;3.20;;;0.80;;
78372;SDS011;67656;52.074;4.758;2023-06-26T12:10:43;2.28;;;1.05;;
78372;SDS011;67656;52.074;4.758;2023-06-26T12:15:45;2.70;;;0.80;;
78372;SDS011;67656;52.074;4.758;2023-06-26T12:20:45;3.63;;;0.80;;
78372;SDS011;67656;52.074;4.758;2023-06-26T12:25:52;2.15;;;0.88;;
78372;SDS011;67656;52.074;4.758;2023-06-26T12:36:13;4.25;;;0.90;;
78372;SDS011;67656;52.074;4.758;2023-06-26T12:41:14;2.65;;;0.80;;
78372;SDS011;67656;52.074;4.758;2023-06-26T12:46:15;3.38;;;0.80;;
78372;SDS011;67656;52.074;4.758;2023-06-26T12:51:16;1.48;;;0.88;;
78372;SDS011;67656;52.074;4.758;2023-06-26T12:56:17;1.47;;;0.80;;
78372;SDS011;67656;52.074;4.758;2023-06-26T13:01:17;2.53;;;0.80;;
78372;SDS011;67656;52.074;4.758;2023-06-26T13:06:18;3.90;;;1.20;;
78372;SDS011;67656;52.074;4.758;2023-06-26T13:11:18;3.10;;;1.02;;
78372;SDS011;67656;52.074;4.758;2023-06-26T13:16:19;1.95;;;0.90;;
78372;SDS011;67656;52.074;4.758;2023-06-26T13:21:28;3.40;;;0.80;;
78372;SDS011;67656;52.074;4.758;2023-06-26T13:26:29;4.75;;;0.90;;
78372;SDS011;67656;52.074;4.758;2023-06-26T13:31:29;3.05;;;1.10;;
78372;SDS011;67656;52.074;4.758;2023-06-26T13:36:30;2.55;;;0.85;;
78372;SDS011;67656;52.074;4.758;2023-06-26T13:41:30;3.67;;;0.93;;
78372;SDS011;67656;52.074;4.758;2023-06-26T13:46:31;3.80;;;1.23;;
78372;SDS011;67656;52.074;4.758;2023-06-26T13:51:31;2.85;;;0.80;;
78372;SDS011;67656;52.074;4.758;2023-06-26T13:56:32;1.50;;;0.70;;
78372;SDS011;67656;52.074;4.758;2023-06-26T14:01:32;2.80;;;0.88;;
78372;SDS011;67656;52.074;4.758;2023-06-26T14:06:32;31.45;;;2.50;;
78372;SDS011;67656;52.074;4.758;2023-06-26T14:11:33;2.22;;;0.77;;
78372;SDS011;67656;52.074;4.758;2023-06-26T14:16:33;3.25;;;0.80;;
78372;SDS011;67656;52.074;4.758;2023-06-26T14:21:34;1.20;;;0.63;;
78372;SDS011;67656;52.074;4.758;2023-06-26T14:26:34;1.75;;;0.80;;
78372;SDS011;67656;52.074;4.758;2023-06-26T14:31:35;5.22;;;1.20;;
78372;SDS011;67656;52.074;4.758;2023-06-26T14:36:35;3.97;;;0.90;;
78372;SDS011;67656;52.074;4.758;2023-06-26T14:41:38;2.50;;;0.80;;
78372;SDS011;67656;52.074;4.758;2023-06-26T14:46:46;1.95;;;0.90;;
78372;SDS011;67656;52.074;4.758;2023-06-26T14:52:07;1.52;;;0.90;;
78372;SDS011;67656;52.074;4.758;2023-06-26T14:57:10;2.17;;;1.00;;
78372;SDS011;67656;52.074;4.758;2023-06-26T15:02:11;0.88;;;0.73;;
78372;SDS011;67656;52.074;4.758;2023-06-26T15:07:11;2.22;;;0.88;;
78372;SDS011;67656;52.074;4.758;2023-06-26T15:12:12;2.38;;;0.90;;
78372;SDS011;67656;52.074;4.758;2023-06-26T15:17:12;2.55;;;0.98;;
78372;SDS011;67656;52.074;4.758;2023-06-26T15:22:13;2.92;;;0.90;;
78372;SDS011;67656;52.074;4.758;2023-06-26T15:27:13;1.35;;;1.00;;
78372;SDS011;67656;52.074;4.758;2023-06-26T15:32:13;1.23;;;0.90;;
78372;SDS011;67656;52.074;4.758;2023-06-26T15:37:14;4.85;;;1.20;;
78372;SDS011;67656;52.074;4.758;2023-06-26T15:42:14;3.08;;;0.90;;
78372;SDS011;67656;52.074;4.758;2023-06-26T15:47:15;5.10;;;1.20;;
78372;SDS011;67656;52.074;4.758;2023-06-26T15:52:15;2.10;;;1.00;;
78372;SDS011;67656;52.074;4.758;2023-06-26T15:57:16;3.47;;;1.10;;
78372;SDS011;67656;52.074;4.758;2023-06-26T16:02:21;3.15;;;1.10;;
78372;SDS011;67656;52.074;4.758;2023-06-26T16:07:31;2.55;;;1.20;;
78372;SDS011;67656;52.074;4.758;2023-06-26T16:12:32;2.50;;;0.88;;
78372;SDS011;67656;52.074;4.758;2023-06-26T16:17:32;3.60;;;1.02;;
78372;SDS011;67656;52.074;4.758;2023-06-26T16:22:32;3.88;;;1.10;;
78372;SDS011;67656;52.074;4.758;2023-06-26T16:27:33;3.03;;;1.20;;
78372;SDS011;67656;52.074;4.758;2023-06-26T16:32:33;3.70;;;0.90;;
78372;SDS011;67656;52.074;4.758;2023-06-26T16:37:34;3.28;;;0.85;;
78372;SDS011;67656;52.074;4.758;2023-06-26T16:42:34;2.92;;;1.00;;
78372;SDS011;67656;52.074;4.758;2023-06-26T16:47:34;2.45;;;1.02;;
78372;SDS011;67656;52.074;4.758;2023-06-26T16:52:35;2.90;;;1.00;;
78372;SDS011;67656;52.074;4.758;2023-06-26T16:57:35;4.43;;;1.30;;
78372;SDS011;67656;52.074;4.758;2023-06-26T17:02:36;2.47;;;0.90;;
78372;SDS011;67656;52.074;4.758;2023-06-26T17:07:37;4.20;;;1.10;;
78372;SDS011;67656;52.074;4.758;2023-06-26T17:12:38;3.15;;;1.30;;
78372;SDS011;67656;52.074;4.758;2023-06-26T17:17:39;5.63;;;1.10;;
78372;SDS011;67656;52.074;4.758;2023-06-26T17:22:39;4.75;;;1.30;;
78372;SDS011;67656;52.074;4.758;2023-06-26T17:27:40;3.53;;;1.10;;
78372;SDS011;67656;52.074;4.758;2023-06-26T17:32:41;4.45;;;1.30;;
78372;SDS011;67656;52.074;4.758;2023-06-26T17:37:42;4.05;;;0.98;;
78372;SDS011;67656;52.074;4.758;2023-06-26T17:42:42;4.20;;;1.10;;
78372;SDS011;67656;52.074;4.758;2023-06-26T17:47:42;2.38;;;1.10;;
78372;SDS011;67656;52.074;4.758;2023-06-26T17:52:43;4.13;;;1.40;;
78372;SDS011;67656;52.074;4.758;2023-06-26T17:57:43;4.63;;;1.20;;
78372;SDS011;67656;52.074;4.758;2023-06-26T18:02:44;2.63;;;1.05;;
78372;SDS011;67656;52.074;4.758;2023-06-26T18:07:44;4.00;;;1.25;;
78372;SDS011;67656;52.074;4.758;2023-06-26T18:12:44;3.15;;;1.10;;
78372;SDS011;67656;52.074;4.758;2023-06-26T18:17:45;4.03;;;1.30;;
78372;SDS011;67656;52.074;4.758;2023-06-26T18:22:45;3.60;;;1.20;;
78372;SDS011;67656;52.074;4.758;2023-06-26T18:27:46;2.80;;;1.10;;
78372;SDS011;67656;52.074;4.758;2023-06-26T18:32:46;7.10;;;1.30;;
78372;SDS011;67656;52.074;4.758;2023-06-26T18:37:46;5.32;;;1.35;;
78372;SDS011;67656;52.074;4.758;2023-06-26T18:42:47;3.65;;;1.20;;
78372;SDS011;67656;52.074;4.758;2023-06-26T18:47:47;3.90;;;1.30;;
78372;SDS011;67656;52.074;4.758;2023-06-26T18:52:48;3.40;;;1.35;;
78372;SDS011;67656;52.074;4.758;2023-06-26T18:57:48;3.55;;;1.15;;
78372;SDS011;67656;52.074;4.758;2023-06-26T19:02:49;3.13;;;1.48;;
78372;SDS011;67656;52.074;4.758;2023-06-26T19:07:50;4.93;;;1.63;;
78372;SDS011;67656;52.074;4.758;2023-06-26T19:12:51;3.95;;;1.30;;
78372;SDS011;67656;52.074;4.758;2023-06-26T19:17:52;4.13;;;1.33;;
78372;SDS011;67656;52.074;4.758;2023-06-26T19:22:52;3.65;;;1.40;;
78372;SDS011;67656;52.074;4.758;2023-06-26T19:27:53;4.10;;;1.60;;
78372;SDS011;67656;52.074;4.758;2023-06-26T19:32:53;8.05;;;1.70;;
78372;SDS011;67656;52.074;4.758;2023-06-26T19:37:53;6.75;;;1.50;;
78372;SDS011;67656;52.074;4.758;2023-06-26T19:42:54;4.07;;;1.38;;
78372;SDS011;67656;52.074;4.758;2023-06-26T19:47:54;4.65;;;1.98;;
78372;SDS011;67656;52.074;4.758;2023-06-26T19:52:55;7.50;;;1.88;;
78372;SDS011;67656;52.074;4.758;2023-06-26T19:57:55;8.80;;;1.83;;
78372;SDS011;67656;52.074;4.758;2023-06-26T20:02:56;4.55;;;1.80;;
78372;SDS011;67656;52.074;4.758;2023-06-26T20:07:56;4.40;;;1.80;;
78372;SDS011;67656;52.074;4.758;2023-06-26T20:12:57;6.28;;;1.92;;
78372;SDS011;67656;52.074;4.758;2023-06-26T20:17:57;5.20;;;2.00;;
78372;SDS011;67656;52.074;4.758;2023-06-26T20:22:58;4.70;;;2.00;;
78372;SDS011;67656;52.074;4.758;2023-06-26T20:27:58;6.75;;;1.88;;
78372;SDS011;67656;52.074;4.758;2023-06-26T20:32:58;6.05;;;1.75;;
78372;SDS011;67656;52.074;4.758;2023-06-26T20:37:59;7.00;;;1.83;;
78372;SDS011;67656;52.074;4.758;2023-06-26T20:42:59;5.90;;;1.85;;
78372;SDS011;67656;52.074;4.758;2023-06-26T20:48:00;6.30;;;1.77;;
78372;SDS011;67656;52.074;4.758;2023-06-26T20:53:00;6.40;;;1.80;;
78372;SDS011;67656;52.074;4.758;2023-06-26T20:58:01;6.32;;;1.92;;
78372;SDS011;67656;52.074;4.758;2023-06-26T21:03:02;4.53;;;1.88;;
78372;SDS011;67656;52.074;4.758;2023-06-26T21:08:02;4.63;;;1.70;;
78372;SDS011;67656;52.074;4.758;2023-06-26T21:13:03;4.43;;;1.90;;
78372;SDS011;67656;52.074;4.758;2023-06-26T21:18:03;5.35;;;2.10;;
78372;SDS011;67656;52.074;4.758;2023-06-26T21:23:04;5.68;;;1.83;;
78372;SDS011;67656;52.074;4.758;2023-06-26T21:28:04;5.47;;;1.80;;
78372;SDS011;67656;52.074;4.758;2023-06-26T21:33:04;7.38;;;2.15;;
78372;SDS011;67656;52.074;4.758;2023-06-26T21:38:05;4.68;;;1.40;;
78372;SDS011;67656;52.074;4.758;2023-06-26T21:43:05;3.20;;;1.65;;
78372;SDS011;67656;52.074;4.758;2023-06-26T21:48:06;7.15;;;1.80;;
78372;SDS011;67656;52.074;4.758;2023-06-26T21:53:06;3.95;;;1.90;;
78372;SDS011;67656;52.074;4.758;2023-06-26T21:58:07;4.57;;;1.60;;
78372;SDS011;67656;52.074;4.758;2023-06-26T22:03:07;5.28;;;1.83;;
78372;SDS011;67656;52.074;4.758;2023-06-26T22:08:08;8.00;;;1.77;;
78372;SDS011;67656;52.074;4.758;2023-06-26T22:13:08;4.88;;;1.55;;
78372;SDS011;67656;52.074;4.758;2023-06-26T22:18:09;3.47;;;1.75;;
78372;SDS011;67656;52.074;4.758;2023-06-26T22:23:09;4.82;;;1.60;;
78372;SDS011;67656;52.074;4.758;2023-06-26T22:28:09;2.55;;;1.55;;
78372;SDS011;67656;52.074;4.758;2023-06-26T22:33:10;3.92;;;1.90;;
78372;SDS011;67656;52.074;4.758;2023-06-26T22:38:10;5.80;;;1.80;;
78372;SDS011;67656;52.074;4.758;2023-06-26T22:43:10;7.10;;;1.75;;
78372;SDS011;67656;52.074;4.758;2023-06-26T22:48:11;3.42;;;1.50;;
78372;SDS011;67656;52.074;4.758;2023-06-26T22:53:11;6.05;;;1.80;;
78372;SDS011;67656;52.074;4.758;2023-06-26T22:58:12;5.80;;;1.35;;
78372;SDS011;67656;52.074;4.758;2023-06-26T23:03:12;6.97;;;1.77;;
78372;SDS011;67656;52.074;4.758;2023-06-26T23:08:13;6.47;;;1.70;;
78372;SDS011;67656;52.074;4.758;2023-06-26T23:13:13;6.18;;;1.50;;
78372;SDS011;67656;52.074;4.758;2023-06-26T23:18:14;5.93;;;1.60;;
78372;SDS011;67656;52.074;4.758;2023-06-26T23:23:14;5.20;;;1.63;;
78372;SDS011;67656;52.074;4.758;2023-06-26T23:28:14;9.00;;;1.85;;
78372;SDS011;67656;52.074;4.758;2023-06-26T23:33:15;7.30;;;2.30;;
78372;SDS011;67656;52.074;4.758;2023-06-26T23:38:15;6.97;;;1.83;;
78372;SDS011;67656;52.074;4.758;2023-06-26T23:43:16;7.50;;;2.20;;
78372;SDS011;67656;52.074;4.758;2023-06-26T23:48:16;7.53;;;1.70;;
78372;SDS011;67656;52.074;4.758;2023-06-26T23:53:16;5.78;;;2.15;;
78372;SDS011;67656;52.074;4.758;2023-06-26T23:58:17;7.30;;;2.10;;
